createdAt,value
2019-05-10T00:00:21.115Z,75.0
2019-05-10T00:01:09.928Z,75.1
2019-05-10T00:01:57.564Z,75.2
2019-05-10T00:02:51.151Z,75.2
2019-05-10T00:03:39.391Z,75.2
2019-05-10T00:04:27.658Z,75.4
2019-05-10T00:05:16.465Z,75.3
2019-05-10T00:06:04.096Z,75.3
2019-05-10T00:06:57.694Z,75.3
2019-05-10T00:07:45.915Z,75.4
2019-05-10T00:08:34.146Z,75.5
2019-05-10T00:09:23.087Z,75.4
2019-05-10T00:10:10.633Z,75.5
2019-05-10T00:11:04.207Z,75.5
2019-05-10T00:11:52.453Z,75.3
2019-05-10T00:12:40.675Z,75.3
2019-05-10T00:13:29.476Z,75.3
2019-05-10T00:14:17.156Z,75.4
2019-05-10T00:15:10.733Z,75.3
2019-05-10T00:15:58.965Z,75.3
2019-05-10T00:16:47.217Z,75.3
2019-05-10T00:17:36.014Z,75.2
2019-05-10T00:18:23.686Z,75.3
2019-05-10T00:19:17.253Z,75.3
2019-05-10T00:20:05.536Z,75.4
2019-05-10T00:20:53.719Z,75.4
2019-05-10T00:21:42.686Z,75.6
2019-05-10T00:22:30.194Z,75.6
2019-05-10T00:23:23.765Z,75.4
2019-05-10T00:24:12.000Z,75.4
2019-05-10T00:25:04.405Z,75.3
2019-05-10T00:25:51.269Z,75.4
2019-05-10T00:26:36.720Z,75.4
2019-05-10T00:27:30.295Z,75.3
2019-05-10T00:28:18.549Z,75.4
2019-05-10T00:29:06.783Z,75.2
2019-05-10T00:29:55.583Z,75.3
2019-05-10T00:30:43.273Z,75.3
2019-05-10T00:31:36.830Z,75.4
2019-05-10T00:32:25.064Z,75.4
2019-05-10T00:33:13.290Z,75.4
2019-05-10T00:34:02.321Z,75.4
2019-05-10T00:34:49.765Z,75.6
2019-05-10T00:35:43.355Z,75.1
2019-05-10T00:36:31.589Z,75.2
2019-05-10T00:37:19.844Z,75.1
2019-05-10T00:38:08.649Z,75.2
2019-05-10T00:38:56.288Z,75.3
2019-05-10T00:39:49.882Z,75.2
2019-05-10T00:40:38.140Z,75.0
2019-05-10T00:41:26.357Z,75.1
2019-05-10T00:42:15.137Z,75.1
2019-05-10T00:43:02.838Z,75.1
2019-05-10T00:43:56.424Z,75.1
2019-05-10T00:44:44.650Z,74.9
2019-05-10T00:45:32.896Z,75.0
2019-05-10T00:46:21.665Z,74.9
2019-05-10T00:47:09.335Z,75.1
2019-05-10T00:48:02.956Z,75.0
2019-05-10T00:48:51.172Z,74.9
2019-05-10T00:49:39.422Z,75.0
2019-05-10T00:50:28.245Z,74.9
2019-05-10T00:51:15.862Z,74.9
2019-05-10T00:52:09.468Z,74.9
2019-05-10T00:52:57.685Z,74.5
2019-05-10T00:53:45.920Z,74.6
2019-05-10T00:54:34.729Z,74.6
2019-05-10T00:55:22.388Z,74.7
2019-05-10T00:56:15.966Z,74.8
2019-05-10T00:57:04.215Z,74.9
2019-05-10T00:57:52.429Z,74.8
2019-05-10T00:58:41.248Z,74.8
2019-05-10T00:59:28.924Z,74.9
2019-05-10T01:00:22.492Z,74.8
2019-05-10T01:01:10.719Z,74.8
2019-05-10T01:01:58.983Z,74.9
2019-05-10T01:02:47.761Z,75.1
2019-05-10T01:03:35.442Z,75.2
2019-05-10T01:04:29.017Z,75.1
2019-05-10T01:05:17.232Z,75.2
2019-05-10T01:06:05.555Z,75.3
2019-05-10T01:06:56.368Z,75.4
2019-05-10T01:07:41.938Z,75.3
2019-05-10T01:08:35.524Z,75.3
2019-05-10T01:09:23.752Z,75.4
2019-05-10T01:10:00.752Z,75.4
2019-05-10T01:10:02.976Z,75.5
2019-05-10T01:10:52.142Z,75.5
2019-05-10T01:11:39.408Z,75.5
2019-05-10T01:12:32.992Z,75.6
2019-05-10T01:13:21.244Z,75.6
2019-05-10T01:14:09.468Z,75.6
2019-05-10T01:14:58.258Z,75.6
2019-05-10T01:15:46.913Z,75.5
2019-05-10T01:16:39.491Z,75.5
2019-05-10T01:17:27.722Z,75.6
2019-05-10T01:18:15.950Z,75.6
2019-05-10T01:19:05.020Z,75.7
2019-05-10T01:19:52.466Z,75.8
2019-05-10T01:20:46.009Z,75.8
2019-05-10T01:21:34.241Z,75.8
2019-05-10T01:22:22.475Z,75.9
2019-05-10T01:23:11.366Z,76.0
2019-05-10T01:23:58.916Z,76.1
2019-05-10T01:24:52.511Z,76.1
2019-05-10T01:25:40.793Z,76.2
2019-05-10T01:26:28.981Z,76.2
2019-05-10T01:27:17.842Z,76.3
2019-05-10T01:28:05.461Z,76.4
2019-05-10T01:28:59.014Z,76.4
2019-05-10T01:29:47.259Z,76.4
2019-05-10T01:30:35.618Z,76.4
2019-05-10T01:31:24.259Z,76.5
2019-05-10T01:32:11.957Z,76.5
2019-05-10T01:33:05.562Z,76.6
2019-05-10T01:33:53.765Z,76.5
2019-05-10T01:34:42.018Z,76.6
2019-05-10T01:35:30.810Z,76.6
2019-05-10T01:36:18.466Z,76.7
2019-05-10T01:37:12.041Z,76.7
2019-05-10T01:38:01.027Z,76.6
2019-05-10T01:38:48.519Z,76.7
2019-05-10T01:39:37.317Z,76.9
2019-05-10T01:40:24.988Z,76.8
2019-05-10T01:41:18.556Z,76.8
2019-05-10T01:42:06.766Z,76.9
2019-05-10T01:42:55.029Z,77.0
2019-05-10T01:43:43.802Z,77.1
2019-05-10T01:44:31.498Z,77.1
2019-05-10T01:45:25.042Z,77.0
2019-05-10T01:46:13.290Z,77.0
2019-05-10T01:47:01.522Z,77.1
2019-05-10T01:47:50.373Z,77.0
2019-05-10T01:48:38.007Z,77.1
2019-05-10T01:49:31.559Z,77.1
2019-05-10T01:50:19.827Z,77.2
2019-05-10T01:51:08.020Z,77.3
2019-05-10T01:51:56.882Z,77.4
2019-05-10T01:52:44.488Z,77.4
2019-05-10T01:53:38.055Z,77.3
2019-05-10T01:54:26.316Z,77.3
2019-05-10T01:55:14.514Z,77.2
2019-05-10T01:56:03.275Z,77.3
2019-05-10T01:56:50.995Z,77.4
2019-05-10T01:57:44.590Z,77.2
2019-05-10T01:58:32.795Z,77.1
2019-05-10T01:59:21.008Z,77.1
2019-05-10T02:00:09.878Z,77.1
2019-05-10T02:00:57.461Z,77.2
2019-05-10T02:01:51.066Z,77.2
2019-05-10T02:02:39.310Z,77.4
2019-05-10T02:03:27.524Z,77.4
2019-05-10T02:04:17.882Z,77.3
2019-05-10T02:05:03.975Z,77.3
2019-05-10T02:05:57.619Z,77.3
2019-05-10T02:06:45.799Z,77.1
2019-05-10T02:07:34.021Z,77.5
2019-05-10T02:08:22.831Z,77.6
2019-05-10T02:09:10.560Z,77.8
2019-05-10T02:10:04.104Z,78.1
2019-05-10T02:10:52.311Z,78.1
2019-05-10T02:11:40.531Z,78.2
2019-05-10T02:12:29.358Z,78.4
2019-05-10T02:13:16.985Z,78.5
2019-05-10T02:14:10.604Z,78.5
2019-05-10T02:14:58.790Z,78.7
2019-05-10T02:15:25.678Z,78.7
2019-05-10T02:15:46.053Z,78.8
2019-05-10T02:16:34.851Z,78.9
2019-05-10T02:17:22.526Z,79.0
2019-05-10T02:18:16.098Z,78.8
2019-05-10T02:19:04.338Z,79.0
2019-05-10T02:19:52.532Z,79.1
2019-05-10T02:20:41.332Z,79.3
2019-05-10T02:21:29.008Z,79.4
2019-05-10T02:22:22.572Z,79.5
2019-05-10T02:23:10.793Z,79.6
2019-05-10T02:23:59.024Z,79.8
2019-05-10T02:24:47.781Z,79.7
2019-05-10T02:25:35.463Z,80.0
2019-05-10T02:26:29.043Z,80.0
2019-05-10T02:27:17.267Z,80.1
2019-05-10T02:28:05.472Z,80.0
2019-05-10T02:28:54.281Z,79.9
2019-05-10T02:29:41.915Z,79.9
2019-05-10T02:30:35.507Z,79.9
2019-05-10T02:31:23.725Z,80.0
2019-05-10T02:32:11.935Z,80.0
2019-05-10T02:33:00.752Z,80.2
2019-05-10T02:33:48.365Z,80.2
2019-05-10T02:34:01.953Z,80.2
2019-05-10T02:34:36.792Z,80.1
2019-05-10T02:35:25.049Z,80.2
2019-05-10T02:36:13.242Z,80.2
2019-05-10T02:37:01.981Z,80.0
2019-05-10T02:37:49.678Z,79.9
2019-05-10T02:38:43.259Z,79.8
2019-05-10T02:39:31.554Z,79.7
2019-05-10T02:40:19.799Z,80.0
2019-05-10T02:41:08.482Z,79.9
2019-05-10T02:41:56.152Z,80.0
2019-05-10T02:42:49.730Z,79.9
2019-05-10T02:43:37.965Z,80.0
2019-05-10T02:44:26.164Z,79.9
2019-05-10T02:45:14.974Z,79.6
2019-05-10T02:46:02.636Z,79.6
2019-05-10T02:46:56.175Z,79.7
2019-05-10T02:47:44.417Z,79.8
2019-05-10T02:48:32.626Z,79.8
2019-05-10T02:49:21.389Z,79.8
2019-05-10T02:50:09.116Z,79.9
2019-05-10T02:51:02.660Z,80.0
2019-05-10T02:51:50.853Z,80.0
2019-05-10T02:52:39.092Z,80.0
2019-05-10T02:53:27.891Z,80.0
2019-05-10T02:54:15.502Z,80.0
2019-05-10T02:55:09.084Z,80.0
2019-05-10T02:55:57.298Z,80.1
2019-05-10T02:56:45.528Z,80.1
2019-05-10T02:57:34.293Z,80.1
2019-05-10T02:58:21.964Z,80.1
2019-05-10T02:59:15.563Z,80.1
2019-05-10T03:00:03.809Z,80.2
2019-05-10T03:00:52.012Z,80.3
2019-05-10T03:01:40.790Z,80.3
2019-05-10T03:02:28.420Z,80.3
2019-05-10T03:03:21.998Z,80.2
2019-05-10T03:04:10.227Z,80.3
2019-05-10T03:04:58.438Z,80.1
2019-05-10T03:05:48.585Z,80.2
2019-05-10T03:06:34.888Z,80.2
2019-05-10T03:07:28.480Z,80.2
2019-05-10T03:08:16.714Z,80.3
2019-05-10T03:09:05.090Z,80.4
2019-05-10T03:09:53.670Z,80.6
2019-05-10T03:10:41.335Z,80.3
2019-05-10T03:11:34.913Z,80.3
2019-05-10T03:12:23.134Z,80.3
2019-05-10T03:13:11.359Z,80.4
2019-05-10T03:14:00.871Z,80.4
2019-05-10T03:14:47.808Z,80.4
2019-05-10T03:15:41.362Z,80.3
2019-05-10T03:16:29.625Z,80.4
2019-05-10T03:17:17.789Z,80.4
2019-05-10T03:18:06.945Z,80.4
2019-05-10T03:18:54.290Z,80.5
2019-05-10T03:19:47.807Z,80.4
2019-05-10T03:20:36.056Z,80.5
2019-05-10T03:21:24.434Z,80.5
2019-05-10T03:22:13.010Z,80.5
2019-05-10T03:23:00.693Z,80.5
2019-05-10T03:23:54.283Z,80.5
2019-05-10T03:24:42.479Z,80.4
2019-05-10T03:25:30.696Z,80.5
2019-05-10T03:26:19.480Z,80.4
2019-05-10T03:27:07.167Z,80.4
2019-05-10T03:28:00.755Z,80.4
2019-05-10T03:28:48.942Z,80.5
2019-05-10T03:29:37.147Z,80.5
2019-05-10T03:30:25.999Z,80.5
2019-05-10T03:31:13.588Z,80.5
2019-05-10T03:32:07.243Z,80.5
2019-05-10T03:32:55.385Z,80.5
2019-05-10T03:33:43.641Z,80.5
2019-05-10T03:34:32.412Z,80.3
2019-05-10T03:35:20.048Z,80.5
2019-05-10T03:36:13.613Z,80.5
2019-05-10T03:37:01.877Z,80.5
2019-05-10T03:37:50.060Z,80.6
2019-05-10T03:38:38.802Z,80.4
2019-05-10T03:39:26.498Z,80.5
2019-05-10T03:40:20.164Z,80.5
2019-05-10T03:41:08.306Z,80.5
2019-05-10T03:41:56.538Z,80.5
2019-05-10T03:42:45.278Z,80.5
2019-05-10T03:43:32.949Z,80.4
2019-05-10T03:44:26.538Z,80.4
2019-05-10T03:45:14.832Z,80.4
2019-05-10T03:46:02.967Z,80.5
2019-05-10T03:46:51.760Z,80.5
2019-05-10T03:47:39.425Z,80.5
2019-05-10T03:48:33.000Z,80.5
2019-05-10T03:49:21.313Z,80.5
2019-05-10T03:50:09.525Z,80.5
2019-05-10T03:50:58.174Z,80.5
2019-05-10T03:51:45.883Z,80.7
2019-05-10T03:52:39.482Z,80.7
2019-05-10T03:53:27.689Z,80.6
2019-05-10T03:54:15.896Z,80.6
2019-05-10T03:55:04.670Z,80.5
2019-05-10T03:55:52.341Z,80.5
2019-05-10T03:56:45.907Z,80.5
2019-05-10T03:57:34.139Z,80.5
2019-05-10T03:58:15.912Z,80.5
2019-05-10T03:58:18.114Z,80.5
2019-05-10T03:59:06.394Z,80.4
2019-05-10T03:59:54.549Z,80.4
2019-05-10T04:00:48.159Z,80.3
2019-05-10T04:01:36.330Z,80.2
2019-05-10T04:02:24.575Z,80.2
2019-05-10T04:03:13.338Z,80.3
2019-05-10T04:04:01.090Z,80.4
2019-05-10T04:04:54.595Z,80.3
2019-05-10T04:05:42.798Z,80.2
2019-05-10T04:06:31.020Z,80.1
2019-05-10T04:07:19.928Z,80.2
2019-05-10T04:08:07.467Z,80.0
2019-05-10T04:09:01.041Z,80.0
2019-05-10T04:09:49.364Z,80.1
2019-05-10T04:10:37.575Z,80.2
2019-05-10T04:11:26.330Z,80.0
2019-05-10T04:12:13.917Z,80.0
2019-05-10T04:13:07.500Z,80.0
2019-05-10T04:13:55.719Z,80.1
2019-05-10T04:14:43.942Z,79.9
2019-05-10T04:15:32.708Z,79.8
2019-05-10T04:16:20.368Z,79.8
2019-05-10T04:17:14.017Z,79.8
2019-05-10T04:18:02.207Z,80.0
2019-05-10T04:18:50.423Z,80.1
2019-05-10T04:19:39.205Z,80.0
2019-05-10T04:20:26.916Z,79.7
2019-05-10T04:21:20.432Z,79.8
2019-05-10T04:22:08.644Z,79.7
2019-05-10T04:22:56.872Z,79.7
2019-05-10T04:23:45.672Z,79.7
2019-05-10T04:24:36.231Z,79.6
2019-05-10T04:25:29.500Z,79.4
2019-05-10T04:26:15.144Z,79.4
2019-05-10T04:27:03.311Z,79.4
2019-05-10T04:27:52.100Z,79.4
2019-05-10T04:28:39.754Z,79.4
2019-05-10T04:29:33.361Z,79.4
2019-05-10T04:30:21.625Z,79.4
2019-05-10T04:31:09.795Z,79.3
2019-05-10T04:31:58.616Z,79.2
2019-05-10T04:32:46.225Z,79.1
2019-05-10T04:33:39.847Z,79.2
2019-05-10T04:34:28.040Z,79.2
2019-05-10T04:35:16.256Z,79.3
2019-05-10T04:36:05.031Z,79.1
2019-05-10T04:36:52.713Z,79.2
2019-05-10T04:37:46.330Z,79.1
2019-05-10T04:38:34.503Z,79.1
2019-05-10T04:39:22.729Z,79.1
2019-05-10T04:40:11.545Z,79.1
2019-05-10T04:40:59.160Z,78.9
2019-05-10T04:41:52.714Z,78.8
2019-05-10T04:42:40.973Z,78.9
2019-05-10T04:43:29.173Z,78.8
2019-05-10T04:44:17.961Z,78.9
2019-05-10T04:45:05.621Z,78.9
2019-05-10T04:45:59.197Z,78.9
2019-05-10T04:46:47.447Z,79.0
2019-05-10T04:47:35.653Z,79.1
2019-05-10T04:48:24.414Z,78.8
2019-05-10T04:49:12.100Z,78.7
2019-05-10T04:50:05.753Z,78.7
2019-05-10T04:50:53.908Z,78.4
2019-05-10T04:51:42.175Z,78.4
2019-05-10T04:52:30.985Z,78.5
2019-05-10T04:53:18.565Z,78.3
2019-05-10T04:54:12.190Z,78.3
2019-05-10T04:55:00.812Z,78.1
2019-05-10T04:55:48.702Z,78.0
2019-05-10T04:56:37.429Z,77.9
2019-05-10T04:57:25.045Z,77.9
2019-05-10T04:58:18.725Z,78.0
2019-05-10T04:59:06.894Z,77.7
2019-05-10T04:59:55.087Z,77.7
2019-05-10T05:00:43.836Z,77.7
2019-05-10T05:01:31.529Z,77.6
2019-05-10T05:02:25.139Z,77.7
2019-05-10T05:03:13.353Z,77.8
2019-05-10T05:04:01.564Z,77.8
2019-05-10T05:04:50.338Z,77.7
2019-05-10T05:05:38.020Z,77.8
2019-05-10T05:06:31.602Z,77.9
2019-05-10T05:07:19.852Z,78.1
2019-05-10T05:08:08.041Z,78.0
2019-05-10T05:08:56.899Z,78.0
2019-05-10T05:09:44.560Z,77.6
2019-05-10T05:10:38.156Z,77.6
2019-05-10T05:11:26.316Z,77.5
2019-05-10T05:12:14.527Z,77.4
2019-05-10T05:13:03.294Z,77.6
2019-05-10T05:13:50.984Z,77.7
2019-05-10T05:14:44.580Z,77.5
2019-05-10T05:15:32.812Z,77.6
2019-05-10T05:16:21.018Z,77.5
2019-05-10T05:17:09.774Z,77.5
2019-05-10T05:17:57.450Z,77.5
2019-05-10T05:18:51.089Z,77.3
2019-05-10T05:19:40.960Z,77.3
2019-05-10T05:20:27.539Z,77.1
2019-05-10T05:21:16.301Z,77.3
2019-05-10T05:22:03.959Z,77.2
2019-05-10T05:22:35.269Z,77.2
2019-05-10T05:22:51.907Z,77.1
2019-05-10T05:23:40.189Z,77.2
2019-05-10T05:24:28.390Z,77.1
2019-05-10T05:25:17.377Z,77.0
2019-05-10T05:26:04.889Z,77.1
2019-05-10T05:26:58.447Z,77.0
2019-05-10T05:27:46.630Z,76.9
2019-05-10T05:28:34.849Z,77.0
2019-05-10T05:29:23.620Z,77.0
2019-05-10T05:30:11.394Z,76.9
2019-05-10T05:31:04.900Z,76.9
2019-05-10T05:31:54.053Z,77.0
2019-05-10T05:32:44.325Z,76.8
2019-05-10T05:34:18.455Z,76.6
2019-05-10T05:35:14.836Z,76.6
2019-05-10T05:36:02.155Z,76.7
2019-05-10T05:36:47.933Z,76.6
2019-05-10T05:37:36.120Z,76.3
2019-05-10T05:38:24.879Z,75.9
2019-05-10T05:39:17.990Z,76.0
2019-05-10T05:40:06.464Z,76.1
2019-05-10T05:40:54.416Z,76.1
2019-05-10T05:41:49.062Z,75.7
2019-05-10T05:42:32.572Z,75.9
2019-05-10T05:43:24.470Z,76.0
2019-05-10T05:44:12.673Z,75.9
2019-05-10T05:45:00.910Z,76.0
2019-05-10T05:45:49.167Z,76.0
2019-05-10T05:46:38.251Z,75.7
2019-05-10T05:47:30.986Z,75.9
2019-05-10T05:48:21.446Z,75.8
2019-05-10T05:49:07.410Z,75.5
2019-05-10T05:49:55.684Z,75.5
2019-05-10T05:50:44.508Z,75.3
2019-05-10T05:51:37.488Z,75.2
2019-05-10T05:52:25.810Z,75.2
2019-05-10T05:53:13.936Z,75.3
2019-05-10T05:54:04.104Z,75.3
2019-05-10T05:54:52.934Z,74.9
2019-05-10T05:55:43.999Z,75.2
2019-05-10T05:56:32.223Z,75.1
2019-05-10T05:57:22.265Z,75.1
2019-05-10T05:58:25.197Z,74.9
2019-05-10T05:58:57.530Z,74.9
2019-05-10T05:59:50.510Z,74.9
2019-05-10T06:00:44.630Z,74.9
2019-05-10T06:01:29.567Z,75.0
2019-05-10T06:02:15.196Z,75.0
2019-05-10T06:03:04.042Z,75.1
2019-05-10T06:04:00.055Z,74.9
2019-05-10T06:04:46.233Z,75.0
2019-05-10T06:05:36.936Z,75.1
2019-05-10T06:06:23.471Z,74.8
2019-05-10T06:07:10.486Z,74.8
2019-05-10T06:08:03.625Z,75.0
2019-05-10T06:08:54.687Z,75.1
2019-05-10T06:09:40.112Z,75.2
2019-05-10T06:10:28.254Z,75.2
2019-05-10T06:11:17.057Z,75.4
2019-05-10T06:12:12.798Z,75.0
2019-05-10T06:12:58.309Z,75.0
2019-05-10T06:13:46.494Z,75.1
2019-05-10T06:14:34.774Z,75.3
2019-05-10T06:15:29.014Z,75.4
2019-05-10T06:16:16.611Z,75.4
2019-05-10T06:17:04.838Z,75.3
2019-05-10T06:17:57.213Z,75.3
2019-05-10T06:18:41.730Z,75.4
2019-05-10T06:19:30.850Z,75.3
2019-05-10T06:20:23.103Z,75.2
2019-05-10T06:21:11.336Z,75.3
2019-05-10T06:22:04.635Z,75.2
2019-05-10T06:23:05.031Z,75.2
2019-05-10T06:23:36.963Z,75.0
2019-05-10T06:24:29.613Z,75.2
2019-05-10T06:25:17.882Z,75.1
2019-05-10T06:26:06.613Z,75.1
2019-05-10T06:26:58.261Z,74.8
2019-05-10T06:27:43.306Z,74.7
2019-05-10T06:28:57.339Z,74.5
2019-05-10T06:29:24.350Z,74.4
2019-05-10T06:30:12.693Z,74.2
2019-05-10T06:31:00.874Z,74.5
2019-05-10T06:31:49.621Z,74.3
2019-05-10T06:32:42.658Z,74.4
2019-05-10T06:33:30.883Z,74.5
2019-05-10T06:34:19.086Z,74.4
2019-05-10T06:35:07.336Z,74.5
2019-05-10T06:35:56.158Z,74.5
2019-05-10T06:36:49.143Z,74.4
2019-05-10T06:37:37.413Z,73.9
2019-05-10T06:38:25.593Z,73.8
2019-05-10T06:39:13.978Z,73.6
2019-05-10T06:40:03.035Z,73.7
2019-05-10T06:40:55.721Z,73.9
2019-05-10T06:41:43.888Z,73.8
2019-05-10T06:42:34.707Z,73.2
2019-05-10T06:43:20.384Z,73.4
2019-05-10T06:44:09.159Z,72.7
2019-05-10T06:45:05.105Z,72.1
2019-05-10T06:45:52.515Z,70.9
2019-05-10T06:46:38.625Z,70.9
2019-05-10T06:47:26.873Z,70.5
2019-05-10T06:47:53.314Z,70.5
2019-05-10T06:48:10.580Z,70.3
2019-05-10T06:49:08.395Z,69.0
2019-05-10T06:49:52.416Z,69.0
2019-05-10T06:50:40.201Z,69.0
2019-05-10T06:51:28.378Z,68.9
2019-05-10T06:52:21.768Z,68.8
2019-05-10T06:53:11.169Z,69.0
2019-05-10T06:53:58.447Z,69.1
2019-05-10T06:54:46.679Z,69.1
2019-05-10T06:55:34.937Z,68.8
2019-05-10T06:56:23.696Z,68.6
2019-05-10T06:57:17.699Z,68.6
2019-05-10T06:58:04.985Z,68.4
2019-05-10T06:58:53.272Z,68.7
2019-05-10T06:59:41.457Z,68.7
2019-05-10T07:00:30.368Z,68.3
2019-05-10T07:01:23.296Z,68.2
2019-05-10T07:02:11.547Z,67.4
2019-05-10T07:02:59.799Z,67.1
2019-05-10T07:03:48.056Z,66.4
2019-05-10T07:04:40.905Z,66.3
2019-05-10T07:05:29.871Z,66.3
2019-05-10T07:06:18.133Z,65.4
2019-05-10T07:07:10.247Z,65.8
2019-05-10T07:08:00.505Z,65.0
2019-05-10T07:08:45.798Z,64.8
2019-05-10T07:10:01.393Z,64.8
2019-05-10T07:10:25.392Z,65.0
2019-05-10T07:11:12.922Z,64.6
2019-05-10T07:12:01.178Z,64.6
2019-05-10T07:12:50.097Z,64.8
2019-05-10T07:13:50.107Z,64.7
2019-05-10T07:14:31.288Z,64.0
2019-05-10T07:15:19.547Z,64.4
2019-05-10T07:16:07.756Z,64.7
2019-05-10T07:17:02.419Z,65.1
2019-05-10T07:17:49.688Z,65.2
2019-05-10T07:18:37.944Z,65.2
2019-05-10T07:19:28.767Z,65.4
2019-05-10T07:20:14.473Z,65.0
2019-05-10T07:21:06.643Z,65.3
2019-05-10T07:21:56.186Z,64.1
2019-05-10T07:22:44.474Z,63.7
2019-05-10T07:23:32.705Z,63.0
2019-05-10T07:24:24.928Z,62.6
2019-05-10T07:25:09.736Z,62.8
2019-05-10T07:26:03.056Z,63.0
2019-05-10T07:26:51.008Z,62.8
2019-05-10T07:27:39.295Z,61.8
2019-05-10T07:28:27.467Z,62.0
2019-05-10T07:29:29.083Z,61.1
2019-05-10T07:30:09.374Z,61.0
2019-05-10T07:30:57.554Z,61.1
2019-05-10T07:31:45.834Z,59.9
2019-05-10T07:32:34.047Z,60.5
2019-05-10T07:33:22.898Z,61.2
2019-05-10T07:34:17.641Z,60.9
2019-05-10T07:35:04.174Z,60.7
2019-05-10T07:35:52.475Z,60.8
2019-05-10T07:36:40.665Z,60.5
2019-05-10T07:37:29.567Z,60.6
2019-05-10T07:38:23.539Z,60.6
2019-05-10T07:39:10.923Z,60.6
2019-05-10T07:39:59.107Z,60.0
2019-05-10T07:40:47.321Z,60.5
2019-05-10T07:41:36.062Z,60.2
2019-05-10T07:42:29.123Z,59.9
2019-05-10T07:43:24.870Z,60.1
2019-05-10T07:44:08.099Z,60.0
2019-05-10T07:44:53.899Z,60.2
2019-05-10T07:45:42.747Z,59.8
2019-05-10T07:46:40.069Z,59.2
2019-05-10T07:47:30.118Z,58.7
2019-05-10T07:48:12.257Z,57.6
2019-05-10T07:49:00.870Z,56.7
2019-05-10T07:49:49.404Z,57.1
2019-05-10T07:50:49.083Z,56.0
2019-05-10T07:51:30.662Z,55.1
2019-05-10T07:52:18.933Z,55.1
2019-05-10T07:53:07.225Z,55.7
2019-05-10T07:53:57.130Z,55.6
2019-05-10T07:54:49.160Z,55.7
2019-05-10T07:55:37.394Z,56.2
2019-05-10T07:56:25.576Z,56.2
2019-05-10T07:57:18.626Z,56.1
2019-05-10T07:58:05.040Z,56.4
2019-05-10T07:58:55.701Z,56.6
2019-05-10T07:59:50.564Z,56.1
2019-05-10T08:00:32.343Z,56.3
2019-05-10T08:01:30.537Z,56.5
2019-05-10T08:02:12.722Z,56.4
2019-05-10T08:03:15.201Z,56.4
2019-05-10T08:03:52.507Z,56.4
2019-05-10T08:04:38.879Z,56.3
2019-05-10T08:05:29.184Z,56.2
2019-05-10T08:06:15.933Z,55.6
2019-05-10T08:07:10.463Z,55.9
2019-05-10T08:07:58.891Z,54.0
2019-05-10T08:08:45.546Z,53.1
2019-05-10T08:09:37.075Z,53.8
2019-05-10T08:10:22.672Z,53.3
2019-05-10T08:11:15.698Z,51.9
2019-05-10T08:12:05.297Z,52.4
2019-05-10T08:12:52.223Z,51.9
2019-05-10T08:13:40.526Z,52.7
2019-05-10T08:14:29.502Z,52.4
2019-05-10T08:14:44.500Z,52.4
2019-05-10T08:15:14.709Z,53.1
2019-05-10T08:16:05.326Z,52.4
2019-05-10T08:16:58.297Z,52.1
2019-05-10T08:17:41.014Z,50.8
2019-05-10T08:18:29.369Z,50.4
2019-05-10T08:19:21.399Z,50.8
2019-05-10T08:20:25.656Z,51.1
2019-05-10T08:21:02.226Z,50.9
2019-05-10T08:21:48.762Z,49.4
2019-05-10T08:22:41.572Z,49.7
2019-05-10T08:23:28.272Z,49.6
2019-05-10T08:24:16.823Z,49.6
2019-05-10T08:25:04.626Z,50.0
2019-05-10T08:25:53.540Z,50.2
2019-05-10T08:26:42.590Z,50.0
2019-05-10T08:27:34.762Z,50.0
2019-05-10T08:28:27.555Z,49.5
2019-05-10T08:29:13.654Z,48.9
2019-05-10T08:30:17.945Z,49.8
2019-05-10T08:30:58.172Z,50.0
2019-05-10T08:31:49.030Z,50.2
2019-05-10T08:32:32.275Z,50.0
2019-05-10T08:33:18.000Z,49.9
2019-05-10T08:34:06.242Z,50.1
2019-05-10T08:34:56.061Z,50.2
2019-05-10T08:35:54.906Z,50.5
2019-05-10T08:36:37.364Z,50.9
2019-05-10T08:37:31.007Z,50.9
2019-05-10T08:38:13.134Z,50.9
2019-05-10T08:39:09.540Z,50.7
2019-05-10T08:39:55.907Z,50.5
2019-05-10T08:40:43.194Z,50.4
2019-05-10T08:41:32.576Z,50.0
2019-05-10T08:42:40.144Z,50.0
2019-05-10T08:43:12.679Z,50.2
2019-05-10T08:44:04.774Z,50.2
2019-05-10T08:44:54.131Z,50.0
2019-05-10T08:45:38.743Z,50.2
2019-05-10T08:46:37.347Z,50.5
2019-05-10T08:47:22.237Z,50.3
2019-05-10T08:48:08.320Z,50.2
2019-05-10T08:48:56.616Z,50.3
2019-05-10T08:49:56.939Z,50.4
2019-05-10T08:50:48.727Z,50.6
2019-05-10T08:51:22.793Z,50.8
2019-05-10T08:52:19.397Z,50.5
2019-05-10T08:53:10.531Z,50.4
2019-05-10T08:53:53.593Z,50.2
2019-05-10T08:54:42.121Z,49.8
2019-05-10T08:55:28.649Z,49.2
2019-05-10T08:56:24.178Z,48.9
2019-05-10T08:57:17.892Z,48.2
2019-05-10T08:57:58.288Z,48.5
2019-05-10T08:58:46.533Z,48.7
2019-05-10T08:59:35.350Z,47.6
2019-05-10T09:00:40.965Z,47.6
2019-05-10T09:01:26.583Z,47.2
2019-05-10T09:02:04.989Z,46.0
2019-05-10T09:02:53.221Z,45.4
2019-05-10T09:03:42.179Z,45.0
2019-05-10T09:04:42.749Z,45.5
2019-05-10T09:05:29.139Z,45.4
2019-05-10T09:06:16.497Z,45.6
2019-05-10T09:07:02.242Z,45.4
2019-05-10T09:07:48.825Z,45.8
2019-05-10T09:08:43.175Z,44.8
2019-05-10T09:09:33.892Z,45.5
2019-05-10T09:10:18.550Z,45.3
2019-05-10T09:11:07.187Z,45.2
2019-05-10T09:11:57.880Z,45.6
2019-05-10T09:12:54.220Z,45.4
2019-05-10T09:13:40.886Z,46.0
2019-05-10T09:14:25.179Z,46.3
2019-05-10T09:15:13.887Z,46.0
2019-05-10T09:16:02.594Z,46.5
2019-05-10T09:17:00.613Z,46.3
2019-05-10T09:17:42.606Z,46.3
2019-05-10T09:17:43.285Z,46.3
2019-05-10T09:18:32.961Z,46.7
2019-05-10T09:19:24.269Z,46.8
2019-05-10T09:20:11.938Z,46.6
2019-05-10T09:21:08.457Z,46.6
2019-05-10T09:21:52.222Z,46.4
2019-05-10T09:22:38.654Z,46.5
2019-05-10T09:23:25.752Z,45.2
2019-05-10T09:24:14.665Z,45.3
2019-05-10T09:25:07.669Z,45.0
2019-05-10T09:25:55.950Z,44.4
2019-05-10T09:26:47.008Z,44.3
2019-05-10T09:27:33.460Z,44.4
2019-05-10T09:28:21.897Z,44.8
2019-05-10T09:29:14.489Z,44.8
2019-05-10T09:30:03.164Z,44.1
2019-05-10T09:30:59.857Z,43.7
2019-05-10T09:31:44.529Z,43.2
2019-05-10T09:32:28.901Z,43.5
2019-05-10T09:33:22.423Z,43.4
2019-05-10T09:34:09.493Z,43.8
2019-05-10T09:34:59.632Z,43.9
2019-05-10T09:35:51.559Z,43.0
2019-05-10T09:36:36.151Z,43.0
2019-05-10T09:36:37.433Z,42.5
2019-05-10T09:37:27.990Z,42.5
2019-05-10T09:38:16.297Z,43.5
2019-05-10T09:39:09.317Z,43.5
2019-05-10T09:40:04.352Z,43.3
2019-05-10T09:40:50.778Z,43.5
2019-05-10T09:41:38.254Z,43.8
2019-05-10T09:42:26.798Z,43.7
2019-05-10T09:43:12.479Z,43.2
2019-05-10T09:43:59.653Z,43.5
2019-05-10T09:44:48.529Z,44.0
2019-05-10T09:45:42.323Z,42.9
2019-05-10T09:47:18.230Z,43.2
2019-05-10T09:48:06.581Z,43.0
2019-05-10T09:49:06.003Z,42.5
2019-05-10T09:49:56.573Z,42.6
2019-05-10T09:50:44.404Z,43.1
2019-05-10T09:51:30.208Z,42.9
2019-05-10T09:52:18.463Z,42.2
2019-05-10T09:53:01.670Z,42.5
2019-05-10T09:53:57.617Z,43.0
2019-05-10T09:54:43.650Z,42.9
2019-05-10T09:55:31.964Z,42.6
2019-05-10T09:56:20.301Z,42.9
2019-05-10T09:57:08.539Z,42.9
2019-05-10T09:58:02.743Z,42.8
2019-05-10T09:58:50.545Z,42.8
2019-05-10T10:00:30.250Z,42.5
2019-05-10T10:01:21.211Z,41.5
2019-05-10T10:02:14.540Z,41.5
2019-05-10T10:03:01.635Z,42.4
2019-05-10T10:03:47.679Z,43.0
2019-05-10T10:05:22.290Z,41.9
2019-05-10T10:06:15.954Z,41.5
2019-05-10T10:07:04.267Z,41.9
2019-05-10T10:07:53.427Z,42.1
2019-05-10T10:08:43.364Z,42.5
2019-05-10T10:10:29.272Z,42.4
2019-05-10T10:11:15.669Z,42.4
2019-05-10T10:12:03.114Z,42.5
2019-05-10T10:12:47.761Z,42.5
2019-05-10T10:13:42.653Z,41.5
2019-05-10T10:14:38.198Z,41.0
2019-05-10T10:15:28.352Z,41.1
2019-05-10T10:16:10.197Z,41.1
2019-05-10T10:16:58.241Z,41.6
2019-05-10T10:17:43.618Z,41.8
2019-05-10T10:18:37.267Z,41.6
2019-05-10T10:19:27.629Z,41.1
2019-05-10T10:20:13.295Z,40.6
2019-05-10T10:21:01.572Z,39.7
2019-05-10T10:21:50.533Z,39.8
2019-05-10T10:22:48.615Z,40.7
2019-05-10T10:23:34.781Z,41.0
2019-05-10T10:24:20.400Z,41.1
2019-05-10T10:25:08.561Z,40.4
2019-05-10T10:25:58.092Z,37.6
2019-05-10T10:26:53.847Z,35.8
2019-05-10T10:27:39.638Z,35.0
2019-05-10T10:28:28.602Z,35.8
2019-05-10T10:29:17.308Z,35.9
2019-05-10T10:30:06.636Z,37.6
2019-05-10T10:31:03.287Z,36.9
2019-05-10T10:31:53.013Z,37.2
2019-05-10T10:32:35.028Z,36.4
2019-05-10T10:33:25.657Z,34.8
2019-05-10T10:34:11.559Z,34.4
2019-05-10T10:35:04.643Z,34.6
2019-05-10T10:35:56.502Z,36.9
2019-05-10T10:36:44.003Z,38.2
2019-05-10T10:37:19.411Z,38.2
2019-05-10T10:37:28.299Z,37.5
2019-05-10T10:38:10.784Z,36.6
2019-05-10T10:39:07.399Z,35.2
2019-05-10T10:39:54.355Z,34.8
2019-05-10T10:40:44.638Z,34.7
2019-05-10T10:41:31.759Z,34.7
2019-05-10T10:42:17.918Z,34.3
2019-05-10T10:43:59.450Z,33.3
2019-05-10T10:44:48.369Z,32.3
2019-05-10T10:45:37.610Z,32.9
2019-05-10T10:46:24.509Z,33.6
2019-05-10T10:47:22.939Z,35.8
2019-05-10T10:48:08.458Z,36.2
2019-05-10T10:48:55.020Z,35.4
2019-05-10T10:49:43.361Z,36.4
2019-05-10T10:50:31.739Z,35.6
2019-05-10T10:51:26.439Z,36.9
2019-05-10T10:53:02.211Z,38.4